首页
METAR-TAF:

METAR-TAF

机场 :

雅典埃莱夫塞里奥斯·韦尼泽洛斯国际机场

雅典, 希腊

纬度: 37-56N, 经度: 023-56E, 海拔: 94米

当前天气观测

该预报发布于16分钟前的23:50 UTC
风速10节,风向
温度 25°C
湿度 47%
气压 1013 hPa
能见度10公里或以上
少量云层高于3000英尺

METAR: LGAV 192350Z 36010KT 9999 FEW030 25/13 Q1013 NOSIG

时间: 03:06 (00:06 UTC)

预报

该预报发布于1小时和6分钟前的23:00 UTC
预报有效从20日的 00点(UTC)到 20日的 24点(UTC)
风速12节,风向
能见度10公里或以上
少量云层高于3000英尺
散云层高于7000英尺
短暂存在
从 20日的 06点(UTC)到 20日的 16点(UTC)
风速13节,风向北转东北,有时为23节阵风

TAF: LGAV 192300Z 2000/2024 36012KT 9999 FEW030 SCT070 TEMPO 2006/2016 03013G23KT

超过4000个机场的气象观测和天气预报(METAR&TAF报告)。

可查询的气象台以黄色和红色小点在地图上表示。

将鼠标移到小点上方,可查看气象台名称。

然后点击查看天气观测和预报。

如需切换地图:点击带黑十字的绿色按钮放大地图;点击带横线的绿色按钮缩小地图;或者点击绿色箭头查看邻近地区的地图。


METAR-TAF: